Time;durP1;ratioP1;P1;durP2;ratioP2;P2;SDS_P1;SDS_P2;PMS_P1;PMS_P2;Temp;Humidity;BMP_temperature;BMP_pressure;BME280_temperature;BME280_humidity;BME280_pressure;Samples;Min_cycle;Max_cycle;Signal;HPM_P1;HPM_P2
2022/11/09 00:02:20;;;;;;;6.53;4.03;;;12.40;99.90;;;;;;5072661;28;20201;-60
2022/11/09 00:04:47;;;;;;;6.80;3.93;;;12.40;99.90;;;;;;5072723;28;20200;-60
2022/11/09 00:07:14;;;;;;;8.03;3.90;;;12.50;99.90;;;;;;5073071;28;20201;-60
2022/11/09 00:09:41;;;;;;;5.40;3.33;;;12.50;99.90;;;;;;5072933;28;20208;-60
2022/11/09 00:12:08;;;;;;;5.03;3.40;;;12.70;99.90;;;;;;5072349;28;20300;-60
2022/11/09 00:14:37;;;;;;;6.07;3.53;;;12.80;99.90;;;;;;5072769;28;20204;-60
2022/11/09 00:17:04;;;;;;;4.17;3.70;;;12.90;99.90;;;;;;5073232;28;20227;-60
2022/11/09 00:19:31;;;;;;;4.07;3.37;;;13.00;99.90;;;;;;5073247;28;20213;-60
2022/11/09 00:21:58;;;;;;;6.33;3.60;;;13.00;99.90;;;;;;5072624;28;20207;-60
2022/11/09 00:24:24;;;;;;;5.30;3.90;;;13.10;99.90;;;;;;5073048;28;20676;-60
2022/11/09 00:26:51;;;;;;;4.77;3.60;;;13.10;99.90;;;;;;5072998;28;20221;-60
2022/11/09 00:29:18;;;;;;;5.77;3.60;;;13.20;99.90;;;;;;5073023;28;20684;-61
2022/11/09 00:31:46;;;;;;;5.60;3.70;;;13.20;99.90;;;;;;5073312;28;20215;-61
2022/11/09 00:34:13;;;;;;;4.50;2.90;;;13.20;99.90;;;;;;5072876;28;20252;-61
2022/11/09 00:36:40;;;;;;;4.77;3.10;;;13.10;99.90;;;;;;5072405;28;20233;-60
2022/11/09 00:39:08;;;;;;;4.17;2.40;;;13.10;99.90;;;;;;5073019;28;20213;-60
2022/11/09 00:41:35;;;;;;;4.30;2.83;;;13.10;99.90;;;;;;5072570;28;20201;-60
2022/11/09 00:44:02;;;;;;;4.83;2.87;;;13.10;99.90;;;;;;5071943;28;20205;-60
2022/11/09 00:46:29;;;;;;;3.97;2.50;;;13.10;99.90;;;;;;5072564;28;20221;-60
2022/11/09 00:48:57;;;;;;;3.90;2.80;;;13.10;99.90;;;;;;5073044;28;20211;-61
2022/11/09 00:51:24;;;;;;;3.57;2.50;;;13.10;99.90;;;;;;5072567;28;20235;-60
2022/11/09 00:53:53;;;;;;;3.17;2.33;;;13.10;99.90;;;;;;5072011;28;20216;-60
2022/11/09 00:56:20;;;;;;;3.43;2.40;;;13.10;99.90;;;;;;5072426;28;20235;-61
2022/11/09 00:58:47;;;;;;;4.50;2.73;;;13.00;99.90;;;;;;5072272;28;20215;-61
2022/11/09 01:01:15;;;;;;;4.13;2.90;;;13.10;99.90;;;;;;5072258;28;20291;-60
2022/11/09 01:03:43;;;;;;;5.20;2.80;;;13.10;99.90;;;;;;5071975;28;20216;-61
2022/11/09 01:06:14;;;;;;;3.73;2.00;;;13.00;99.90;;;;;;5072182;28;20221;-60
2022/11/09 01:08:41;;;;;;;4.67;2.83;;;13.00;99.90;;;;;;5072414;28;20216;-60
2022/11/09 01:11:09;;;;;;;3.90;2.60;;;12.90;99.90;;;;;;5072363;28;20207;-61
2022/11/09 01:13:37;;;;;;;4.37;2.50;;;12.90;99.90;;;;;;5072010;28;20205;-61
2022/11/09 01:16:06;;;;;;;5.07;2.77;;;12.80;99.90;;;;;;5074365;28;20340;-61
2022/11/09 01:18:33;;;;;;;3.57;2.70;;;12.90;99.90;;;;;;5076724;28;20204;-61
2022/11/09 01:21:02;;;;;;;3.57;2.43;;;12.90;99.90;;;;;;5076068;28;20665;-59
2022/11/09 01:23:30;;;;;;;6.97;2.70;;;12.90;99.90;;;;;;5075677;28;20216;-61
2022/11/09 01:25:58;;;;;;;5.83;2.43;;;13.00;99.90;;;;;;5075984;28;20231;-59
2022/11/09 01:28:25;;;;;;;4.07;2.20;;;13.00;99.90;;;;;;5075779;28;20209;-59
2022/11/09 01:30:52;;;;;;;6.23;2.37;;;12.90;99.90;;;;;;5076262;28;20209;-59
2022/11/09 01:33:20;;;;;;;3.87;2.37;;;13.00;99.90;;;;;;5075544;28;20296;-60
2022/11/09 01:35:46;;;;;;;4.30;2.53;;;13.00;99.90;;;;;;5076108;28;20649;-59
2022/11/09 01:38:13;;;;;;;3.10;2.20;;;13.00;99.90;;;;;;5076556;28;20677;-59
2022/11/09 01:40:41;;;;;;;5.47;2.20;;;13.00;99.90;;;;;;5076466;28;20207;-59
2022/11/09 01:43:15;;;;;;;3.77;2.63;;;13.10;99.90;;;;;;5075615;28;20641;-59
2022/11/09 01:45:44;;;;;;;3.33;1.90;;;13.00;99.90;;;;;;5076301;28;20612;-59
2022/11/09 01:48:13;;;;;;;2.77;2.30;;;13.20;99.90;;;;;;5076018;28;20587;-59
2022/11/09 01:50:46;;;;;;;2.97;2.17;;;13.20;99.90;;;;;;5075910;28;20201;-59
2022/11/09 01:53:16;;;;;;;2.77;2.07;;;13.20;99.90;;;;;;5075284;28;20215;-59
2022/11/09 01:55:48;;;;;;;1.97;1.77;;;13.30;99.90;;;;;;5075111;28;20704;-59
2022/11/09 01:58:18;;;;;;;3.73;1.90;;;13.30;99.90;;;;;;5075757;28;20213;-59
2022/11/09 02:00:48;;;;;;;3.40;2.30;;;13.40;99.90;;;;;;5075690;28;20232;-58
2022/11/09 02:03:20;;;;;;;5.30;2.57;;;13.50;99.90;;;;;;5074709;28;20205;-59
2022/11/09 02:05:49;;;;;;;4.23;2.50;;;13.50;99.90;;;;;;5075335;28;20236;-59
2022/11/09 02:08:18;;;;;;;3.97;2.10;;;13.60;99.90;;;;;;5075563;28;20227;-59
2022/11/09 02:10:55;;;;;;;4.70;2.40;;;13.60;99.90;;;;;;5075298;28;20216;-59
2022/11/09 02:13:24;;;;;;;2.67;2.33;;;13.70;99.90;;;;;;5074978;28;20307;-58
2022/11/09 02:15:52;;;;;;;5.07;2.60;;;13.70;99.90;;;;;;5075168;28;20225;-58
2022/11/09 02:18:20;;;;;;;10.50;3.10;;;13.70;99.90;;;;;;5075494;28;20204;-59
2022/11/09 02:20:50;;;;;;;4.23;2.90;;;13.60;99.90;;;;;;5075022;28;20208;-59
2022/11/09 02:23:18;;;;;;;4.60;2.73;;;13.50;99.90;;;;;;5074314;28;20673;-58
2022/11/09 02:25:49;;;;;;;4.37;2.70;;;13.40;99.90;;;;;;5074744;28;20328;-59
2022/11/09 02:28:17;;;;;;;4.43;2.97;;;13.40;99.90;;;;;;5073867;28;20205;-59
2022/11/09 02:30:48;;;;;;;5.40;3.50;;;13.40;99.90;;;;;;5074555;28;20205;-59
2022/11/09 02:33:14;;;;;;;4.60;3.33;;;13.40;99.90;;;;;;5074387;28;20205;-59
2022/11/09 02:35:41;;;;;;;4.13;3.10;;;13.20;99.90;;;;;;5074554;28;20237;-59
2022/11/09 02:38:12;;;;;;;4.13;3.50;;;13.00;99.90;;;;;;5074758;28;20235;-59
2022/11/09 02:40:42;;;;;;;4.60;3.10;;;12.80;99.90;;;;;;5074810;28;20581;-59
2022/11/09 02:43:10;;;;;;;6.50;3.30;;;12.70;99.90;;;;;;5074102;28;20577;-59
2022/11/09 02:45:37;;;;;;;5.00;3.33;;;12.60;99.90;;;;;;5074719;28;20232;-59
2022/11/09 02:48:05;;;;;;;6.03;3.53;;;12.80;99.90;;;;;;5074824;28;20624;-59
2022/11/09 02:50:32;;;;;;;7.77;3.77;;;13.00;99.90;;;;;;5074712;28;20201;-59
2022/11/09 02:52:59;;;;;;;5.17;3.40;;;13.00;99.90;;;;;;5073930;28;20574;-60
2022/11/09 02:55:27;;;;;;;4.60;3.33;;;13.20;99.90;;;;;;5074436;28;20224;-59
2022/11/09 02:57:54;;;;;;;3.57;2.90;;;13.20;99.90;;;;;;5074284;28;20229;-59
2022/11/09 03:00:21;;;;;;;4.77;2.77;;;13.10;99.90;;;;;;5074219;28;20205;-59
2022/11/09 03:02:48;;;;;;;4.83;2.90;;;13.10;99.90;;;;;;5073552;28;20205;-59
2022/11/09 03:05:15;;;;;;;4.43;3.17;;;13.10;99.90;;;;;;5073688;28;20225;-59
2022/11/09 03:07:42;;;;;;;4.60;2.90;;;13.20;99.90;;;;;;5073896;28;20586;-59
2022/11/09 03:10:09;;;;;;;6.00;3.10;;;13.40;99.90;;;;;;5073802;28;20241;-59
2022/11/09 03:12:37;;;;;;;7.47;3.10;;;13.40;99.90;;;;;;5073568;28;20208;-59
2022/11/09 03:15:07;;;;;;;5.00;3.00;;;13.40;99.90;;;;;;5074025;28;20228;-59
2022/11/09 03:17:34;;;;;;;6.10;2.67;;;13.50;99.90;;;;;;5073895;28;20305;-59
2022/11/09 03:20:02;;;;;;;4.23;3.33;;;13.60;99.90;;;;;;5073840;28;20288;-59
2022/11/09 03:22:29;;;;;;;6.90;3.30;;;13.60;99.90;;;;;;5073282;28;20209;-59
2022/11/09 03:24:56;;;;;;;5.93;3.30;;;13.70;99.90;;;;;;5073658;28;20756;-59
2022/11/09 03:27:23;;;;;;;6.10;3.23;;;13.80;99.90;;;;;;5074145;28;20212;-59
2022/11/09 03:29:51;;;;;;;5.67;3.63;;;13.80;99.90;;;;;;5073679;28;20215;-59
2022/11/09 03:32:18;;;;;;;5.90;3.83;;;13.70;99.90;;;;;;5072970;28;20208;-59
2022/11/09 03:34:45;;;;;;;4.57;3.23;;;13.70;99.90;;;;;;5073457;28;20205;-59
2022/11/09 03:37:11;;;;;;;4.70;3.70;;;13.70;99.90;;;;;;5073786;28;20220;-59
2022/11/09 03:39:38;;;;;;;5.43;3.40;;;13.60;99.90;;;;;;5073896;28;20212;-59
2022/11/09 03:42:05;;;;;;;4.47;3.33;;;13.50;99.90;;;;;;5073668;28;20209;-59
2022/11/09 03:44:32;;;;;;;5.03;3.10;;;13.40;99.90;;;;;;5073939;28;20220;-59
2022/11/09 03:47:00;;;;;;;5.30;3.30;;;13.40;99.90;;;;;;5073307;28;20232;-59
2022/11/09 03:49:27;;;;;;;6.10;3.67;;;13.40;99.90;;;;;;5074068;28;20698;-59
2022/11/09 03:51:54;;;;;;;5.57;3.57;;;13.40;99.90;;;;;;5073495;28;20291;-58
2022/11/09 03:54:20;;;;;;;5.50;3.27;;;13.50;99.90;;;;;;5073020;28;20219;-58
2022/11/09 03:56:47;;;;;;;5.47;3.80;;;13.50;99.90;;;;;;5073090;28;20235;-58
2022/11/09 03:59:14;;;;;;;5.17;3.97;;;13.60;99.90;;;;;;5072997;28;20209;-60
2022/11/09 04:01:41;;;;;;;5.60;3.97;;;13.60;99.90;;;;;;5072907;28;20299;-58
2022/11/09 04:04:09;;;;;;;7.73;4.60;;;13.70;99.90;;;;;;5072454;28;20212;-59
2022/11/09 04:06:36;;;;;;;6.93;4.53;;;13.70;99.90;;;;;;5072695;28;20225;-58
2022/11/09 04:09:02;;;;;;;8.00;4.43;;;13.70;99.90;;;;;;5072892;28;20209;-59
2022/11/09 04:11:29;;;;;;;6.80;4.33;;;13.70;99.90;;;;;;5072677;28;20205;-59
2022/11/09 04:13:56;;;;;;;5.27;4.00;;;13.60;99.90;;;;;;5072742;28;20205;-58
2022/11/09 04:16:24;;;;;;;6.67;3.67;;;13.50;99.90;;;;;;5073080;28;20231;-60
2022/11/09 04:18:51;;;;;;;6.30;3.83;;;13.40;99.90;;;;;;5073159;28;20208;-60
2022/11/09 04:21:19;;;;;;;6.03;3.93;;;13.30;99.90;;;;;;5073154;28;20209;-60
2022/11/09 04:23:47;;;;;;;9.57;4.40;;;13.00;99.90;;;;;;5072614;28;20703;-60
2022/11/09 04:26:14;;;;;;;6.17;4.67;;;12.70;99.90;;;;;;5072768;28;20229;-60
2022/11/09 04:28:41;;;;;;;6.30;3.87;;;12.50;99.90;;;;;;5072738;28;20197;-58
2022/11/09 04:31:07;;;;;;;4.80;3.97;;;12.30;99.90;;;;;;5072356;28;20684;-58
2022/11/09 04:33:34;;;;;;;5.30;3.90;;;12.20;99.90;;;;;;5072121;28;20578;-59
2022/11/09 04:36:02;;;;;;;5.00;3.77;;;12.10;99.90;;;;;;5072498;28;20323;-58
2022/11/09 04:38:31;;;;;;;4.87;3.47;;;12.20;99.90;;;;;;5072622;28;20239;-58
2022/11/09 04:41:00;;;;;;;5.30;4.03;;;12.30;99.90;;;;;;5073051;28;20698;-59
2022/11/09 04:43:27;;;;;;;7.83;3.77;;;12.50;99.90;;;;;;5072807;28;20205;-60
2022/11/09 04:45:54;;;;;;;7.57;4.70;;;12.50;99.90;;;;;;5073018;28;20232;-59
2022/11/09 04:48:21;;;;;;;5.33;3.93;;;12.70;99.90;;;;;;5073616;28;20226;-60
2022/11/09 04:50:48;;;;;;;6.20;3.90;;;12.80;99.90;;;;;;5072764;28;20209;-60
2022/11/09 04:53:15;;;;;;;5.00;4.00;;;12.90;99.90;;;;;;5072581;28;20207;-60
2022/11/09 04:55:44;;;;;;;4.00;3.33;;;12.80;99.90;;;;;;5072993;28;20225;-60
2022/11/09 04:58:11;;;;;;;7.20;3.17;;;12.90;99.90;;;;;;5073208;28;20237;-60
2022/11/09 05:00:38;;;;;;;3.90;3.40;;;12.80;99.90;;;;;;5072627;28;20211;-60
2022/11/09 05:03:06;;;;;;;5.43;3.23;;;12.70;99.90;;;;;;5072188;28;20216;-60
2022/11/09 05:05:34;;;;;;;7.40;3.60;;;12.50;99.90;;;;;;5073528;28;20220;-60
2022/11/09 05:08:01;;;;;;;4.97;3.67;;;12.30;99.90;;;;;;5073813;28;20201;-60
2022/11/09 05:10:28;;;;;;;4.63;3.50;;;12.10;99.90;;;;;;5073948;28;20205;-60
2022/11/09 05:12:59;;;;;;;4.27;3.17;;;12.00;99.90;;;;;;5073022;28;20243;-59
2022/11/09 05:15:26;;;;;;;4.80;3.60;;;12.20;99.90;;;;;;5073806;28;20229;-60
2022/11/09 05:17:53;;;;;;;4.10;3.60;;;12.20;99.90;;;;;;5073362;28;20221;-60
2022/11/09 05:20:20;;;;;;;3.93;3.40;;;12.10;99.90;;;;;;5073998;28;20209;-60
2022/11/09 05:25:31;;;;;;;3.80;3.20;;;11.90;99.90;;;;;;5073875;28;20228;-60
2022/11/09 05:27:59;;;;;;;5.10;3.30;;;11.90;99.90;;;;;;5073018;28;20203;-60
2022/11/09 05:30:26;;;;;;;4.67;3.27;;;12.10;99.90;;;;;;5073456;28;20295;-60
2022/11/09 05:32:53;;;;;;;9.80;6.93;;;12.10;99.90;;;;;;5072765;28;20212;-60
2022/11/09 05:35:20;;;;;;;4.20;3.47;;;12.30;99.90;;;;;;5072908;28;20240;-59
2022/11/09 05:37:48;;;;;;;5.87;3.70;;;12.50;99.90;;;;;;5072625;28;20229;-60
2022/11/09 05:40:16;;;;;;;5.37;3.60;;;12.50;99.90;;;;;;5072741;28;20205;-60
2022/11/09 05:42:43;;;;;;;7.70;3.20;;;12.60;99.90;;;;;;5072198;28;20570;-60
2022/11/09 05:45:13;;;;;;;5.33;3.23;;;12.50;99.90;;;;;;5072887;28;20229;-60
2022/11/09 05:47:40;;;;;;;3.67;2.97;;;12.50;99.90;;;;;;5073110;28;20201;-60
2022/11/09 05:50:10;;;;;;;5.23;2.83;;;12.30;99.90;;;;;;5073006;28;20208;-60
2022/11/09 05:52:37;;;;;;;4.70;3.53;;;12.30;99.90;;;;;;5072380;28;21177;-60
2022/11/09 05:55:04;;;;;;;4.83;3.23;;;12.30;99.90;;;;;;5072895;28;20225;-60
2022/11/09 05:57:31;;;;;;;6.13;3.20;;;12.30;99.90;;;;;;5072844;28;20217;-59
2022/11/09 05:59:58;;;;;;;4.40;2.97;;;12.30;99.90;;;;;;5072239;28;20204;-59
2022/11/09 06:02:30;;;;;;;5.93;3.33;;;12.30;99.90;;;;;;5073980;28;20576;-62
2022/11/09 06:04:58;;;;;;;4.40;3.13;;;12.30;99.90;;;;;;5075786;28;20575;-59
2022/11/09 06:07:24;;;;;;;3.87;3.33;;;12.40;99.90;;;;;;5075655;28;20256;-59
2022/11/09 06:09:51;;;;;;;6.07;3.67;;;12.40;99.90;;;;;;5076132;28;20211;-60
2022/11/09 06:12:18;;;;;;;3.47;3.03;;;12.40;99.90;;;;;;5075200;28;20201;-60
2022/11/09 06:14:45;;;;;;;6.93;3.67;;;12.30;99.90;;;;;;5074909;28;20209;-60
2022/11/09 06:17:11;;;;;;;4.70;3.17;;;12.30;99.90;;;;;;5076063;28;20229;-60
2022/11/09 06:19:40;;;;;;;3.90;3.20;;;12.30;99.90;;;;;;5075364;28;20215;-60
2022/11/09 06:22:07;;;;;;;3.60;3.10;;;12.30;99.90;;;;;;5075696;28;20312;-60
2022/11/09 06:24:36;;;;;;;4.20;3.50;;;12.40;99.90;;;;;;5075229;28;20240;-61
2022/11/09 06:27:03;;;;;;;5.43;3.20;;;12.40;99.90;;;;;;5075451;28;20205;-60
2022/11/09 06:29:30;;;;;;;4.90;3.47;;;12.40;99.90;;;;;;5075295;28;20299;-60
2022/11/09 06:31:57;;;;;;;5.00;3.20;;;12.40;99.90;;;;;;5075211;28;20205;-60
2022/11/09 06:34:24;;;;;;;4.80;3.20;;;12.40;99.90;;;;;;5075246;28;20205;-59
2022/11/09 06:36:52;;;;;;;3.93;3.20;;;12.40;99.90;;;;;;5075912;28;20229;-59
2022/11/09 06:39:20;;;;;;;4.63;3.50;;;12.40;99.90;;;;;;5076067;28;20221;-61
2022/11/09 06:41:46;;;;;;;4.93;3.40;;;12.40;99.90;;;;;;5075426;28;20238;-59
2022/11/09 06:44:14;;;;;;;4.10;3.70;;;12.50;99.90;;;;;;5074950;28;20266;-59
2022/11/09 06:46:40;;;;;;;4.80;3.23;;;12.50;99.90;;;;;;5075484;28;20235;-59
2022/11/09 06:49:08;;;;;;;4.57;3.40;;;12.60;99.90;;;;;;5075567;28;20209;-60
2022/11/09 06:51:34;;;;;;;8.70;3.80;;;12.70;99.90;;;;;;5075012;28;20209;-60
2022/11/09 06:54:03;;;;;;;5.77;3.20;;;12.80;99.90;;;;;;5074513;28;20209;-59
2022/11/09 06:56:30;;;;;;;4.57;3.40;;;12.80;99.90;;;;;;5075032;28;20229;-60
2022/11/09 06:58:56;;;;;;;6.03;3.70;;;12.90;99.90;;;;;;5075112;28;20225;-60
2022/11/09 07:01:28;;;;;;;3.97;3.53;;;12.90;99.90;;;;;;5074694;28;20304;-59
2022/11/09 07:03:55;;;;;;;4.97;3.50;;;12.90;99.90;;;;;;5074683;28;20205;-60
2022/11/09 07:06:22;;;;;;;5.73;3.63;;;12.90;99.90;;;;;;5074313;28;20225;-60
2022/11/09 07:08:50;;;;;;;6.13;3.77;;;12.90;99.90;;;;;;5074289;28;20200;-60
2022/11/09 07:11:18;;;;;;;4.87;3.20;;;13.00;99.90;;;;;;5074245;28;20201;-60
2022/11/09 07:13:47;;;;;;;4.90;3.80;;;13.00;99.90;;;;;;5073060;28;20205;-60
2022/11/09 07:16:16;;;;;;;4.47;3.83;;;13.00;99.90;;;;;;5074169;28;20233;-60
2022/11/09 07:18:43;;;;;;;6.47;3.20;;;13.00;99.90;;;;;;5075390;28;20225;-60
2022/11/09 07:21:10;;;;;;;7.27;3.73;;;13.00;99.90;;;;;;5074973;28;20266;-60
2022/11/09 07:23:38;;;;;;;5.27;3.40;;;13.00;99.90;;;;;;5074382;28;20200;-59
2022/11/09 07:26:05;;;;;;;5.57;4.17;;;13.10;99.90;;;;;;5074353;28;20225;-60
2022/11/09 07:28:33;;;;;;;6.13;4.00;;;13.10;99.90;;;;;;5074642;28;20288;-60
2022/11/09 07:31:01;;;;;;;5.47;3.40;;;13.20;99.90;;;;;;5074087;28;20212;-60
2022/11/09 07:33:29;;;;;;;6.13;3.73;;;13.20;99.90;;;;;;5073680;28;20215;-60
2022/11/09 07:35:58;;;;;;;5.20;4.03;;;13.10;99.90;;;;;;5074235;28;20237;-60
2022/11/09 07:38:25;;;;;;;7.87;3.63;;;13.00;99.90;;;;;;5073323;28;20229;-60
2022/11/09 07:40:52;;;;;;;4.83;3.50;;;13.00;99.90;;;;;;5073354;28;20205;-60
2022/11/09 07:43:19;;;;;;;5.77;3.70;;;13.10;99.90;;;;;;5072516;28;20230;-60
2022/11/09 07:45:47;;;;;;;4.80;3.30;;;13.20;99.90;;;;;;5073675;28;20224;-60
2022/11/09 07:48:14;;;;;;;6.30;3.87;;;13.40;99.90;;;;;;5073576;28;20308;-60
2022/11/09 07:50:41;;;;;;;5.90;3.60;;;13.50;99.90;;;;;;5073351;28;20219;-60
2022/11/09 07:53:11;;;;;;;5.07;3.73;;;13.70;99.90;;;;;;5072729;28;20204;-60
2022/11/09 07:55:37;;;;;;;5.00;3.30;;;13.80;99.90;;;;;;5073392;28;20314;-60
2022/11/09 07:58:06;;;;;;;6.13;3.57;;;13.90;99.90;;;;;;5073596;28;20235;-60
2022/11/09 08:00:35;;;;;;;5.30;3.23;;;14.00;99.90;;;;;;5073697;28;20201;-60
2022/11/09 08:03:04;;;;;;;3.93;3.30;;;14.10;99.90;;;;;;5073310;28;20566;-60
2022/11/09 08:05:31;;;;;;;4.93;3.33;;;14.10;99.90;;;;;;5073908;28;20612;-60
2022/11/09 08:08:00;;;;;;;4.90;3.60;;;14.10;99.90;;;;;;5073933;28;20200;-61
2022/11/09 08:10:28;;;;;;;6.80;3.00;;;14.20;99.90;;;;;;5073806;28;20288;-60
2022/11/09 08:12:56;;;;;;;5.33;2.63;;;14.30;99.90;;;;;;5073046;28;20219;-60
2022/11/09 08:15:23;;;;;;;4.67;3.17;;;14.40;99.90;;;;;;5073229;28;20607;-60
2022/11/09 08:17:50;;;;;;;3.10;2.80;;;14.50;99.90;;;;;;5073576;28;20230;-61
2022/11/09 08:20:19;;;;;;;3.53;2.90;;;14.60;99.90;;;;;;5072973;28;20236;-60
2022/11/09 08:22:47;;;;;;;5.53;3.50;;;14.70;99.90;;;;;;5072306;28;20291;-61
2022/11/09 08:25:15;;;;;;;4.77;2.70;;;14.80;99.90;;;;;;5072325;28;20248;-60
2022/11/09 08:27:42;;;;;;;5.83;2.97;;;14.80;99.90;;;;;;5073054;28;20303;-60
2022/11/09 08:30:13;;;;;;;3.80;2.33;;;15.00;99.90;;;;;;5073150;28;20200;-60
2022/11/09 08:32:40;;;;;;;4.30;2.30;;;15.00;99.90;;;;;;5072672;28;20281;-60
2022/11/09 08:35:09;;;;;;;3.27;2.40;;;15.00;99.90;;;;;;5072470;28;20311;-61
2022/11/09 08:37:38;;;;;;;3.37;2.23;;;14.90;99.90;;;;;;5072772;28;20312;-60
2022/11/09 08:40:07;;;;;;;4.13;2.13;;;14.90;99.90;;;;;;5073041;28;20661;-60
2022/11/09 08:42:33;;;;;;;38.60;35.10;;;14.90;99.90;;;;;;5072678;28;20212;-60
2022/11/09 08:45:00;;;;;;;15.23;13.97;;;14.80;99.90;;;;;;5073788;28;20603;-59
2022/11/09 08:47:28;;;;;;;3.33;2.10;;;14.90;99.90;;;;;;5073431;28;20278;-57
2022/11/09 08:49:55;;;;;;;2.53;1.70;;;14.90;99.90;;;;;;5072590;28;20197;-57
2022/11/09 08:52:22;;;;;;;3.73;1.87;;;14.90;99.90;;;;;;5073498;28;20669;-57
2022/11/09 08:54:50;;;;;;;2.70;2.30;;;14.90;99.90;;;;;;5072043;28;20209;-55
2022/11/09 08:57:18;;;;;;;4.03;2.20;;;14.90;99.90;;;;;;5072601;28;20691;-56
2022/11/09 08:59:46;;;;;;;2.93;1.93;;;15.00;99.90;;;;;;5072428;28;20243;-56
2022/11/09 09:02:14;;;;;;;3.70;1.90;;;15.10;99.90;;;;;;5072420;28;20215;-57
2022/11/09 09:04:41;;;;;;;2.17;1.70;;;15.20;99.90;;;;;;5072447;28;20240;-57
2022/11/09 09:07:09;;;;;;;3.10;2.23;;;15.30;99.90;;;;;;5072499;28;20688;-55
2022/11/09 09:09:37;;;;;;;2.60;1.77;;;15.40;99.90;;;;;;5072569;28;20205;-55
2022/11/09 09:12:06;;;;;;;3.50;1.70;;;15.50;99.90;;;;;;5072290;28;20688;-56
2022/11/09 09:14:33;;;;;;;2.27;1.60;;;15.50;99.90;;;;;;5071815;28;20254;-56
2022/11/09 09:17:00;;;;;;;2.97;1.80;;;15.70;99.90;;;;;;5072167;28;20229;-57
2022/11/09 09:19:27;;;;;;;1.90;1.60;;;15.80;99.90;;;;;;5072407;28;20228;-56
2022/11/09 09:21:53;;;;;;;1.80;1.50;;;15.90;99.90;;;;;;5072881;28;20205;-56
2022/11/09 09:24:20;;;;;;;2.83;1.50;;;16.00;99.90;;;;;;5072024;28;20205;-57
2022/11/09 09:26:47;;;;;;;4.13;1.75;;;16.20;99.90;;;;;;5072813;28;20575;-57
2022/11/09 09:29:16;;;;;;;1.90;1.55;;;16.10;99.90;;;;;;5072785;28;20228;-57
2022/11/09 09:31:42;;;;;;;2.53;1.48;;;16.10;99.90;;;;;;5072164;28;20212;-56
2022/11/09 09:34:11;;;;;;;3.10;1.40;;;16.20;99.90;;;;;;5071693;28;20205;-57
2022/11/09 09:36:38;;;;;;;1.98;1.30;;;16.40;99.90;;;;;;5073077;28;20236;-57
2022/11/09 09:39:06;;;;;;;2.67;1.38;;;16.60;99.90;;;;;;5076010;28;20224;-57
2022/11/09 09:41:37;;;;;;;3.53;1.40;;;16.70;99.90;;;;;;5076231;28;20587;-57
2022/11/09 09:44:20;;;;;;;1.67;1.20;;;16.80;99.90;;;;;;5075209;28;20211;-56
2022/11/09 09:46:52;;;;;;;2.35;1.58;;;16.90;99.90;;;;;;5076550;28;20248;-56
2022/11/09 09:49:23;;;;;;;2.35;1.27;;;17.10;99.90;;;;;;5076159;28;20201;-56
2022/11/09 09:51:53;;;;;;;2.95;1.48;;;17.30;99.90;;;;;;5076433;28;20205;-56
2022/11/09 09:54:24;;;;;;;2.08;1.20;;;17.50;99.90;;;;;;5075680;28;20204;-57
2022/11/09 09:56:55;;;;;;;12.95;7.70;;;17.60;99.90;;;;;;5076214;28;20233;-56
2022/11/09 09:59:33;;;;;;;2.92;2.08;;;17.70;99.90;;;;;;5076223;28;20225;-59
2022/11/09 10:02:00;;;;;;;2.33;1.35;;;17.80;99.90;;;;;;5076290;28;20274;-56
2022/11/09 10:04:34;;;;;;;2.80;1.50;;;17.90;99.90;;;;;;5076068;28;20231;-57
2022/11/09 10:07:07;;;;;;;2.22;1.50;;;18.00;99.90;;;;;;5076223;28;20232;-58
2022/11/09 10:09:45;;;;;;;2.10;1.27;;;17.90;99.90;;;;;;5076860;28;20732;-56
2022/11/09 10:12:19;;;;;;;3.53;1.33;;;17.90;99.90;;;;;;5077582;28;20609;-58
2022/11/09 10:15:12;;;;;;;2.17;1.33;;;18.00;99.90;;;;;;5077631;28;20499;-56
2022/11/09 10:17:49;;;;;;;2.28;0.90;;;18.00;99.90;;;;;;5077344;28;20212;-55
2022/11/09 10:20:28;;;;;;;1.98;1.42;;;18.10;99.90;;;;;;5076873;28;20224;-57
2022/11/09 10:23:14;;;;;;;2.97;1.15;;;18.10;99.90;;;;;;5076577;28;20208;-57
2022/11/09 10:25:45;;;;;;;1.65;1.35;;;18.10;99.90;;;;;;5076512;28;20258;-57
2022/11/09 10:28:17;;;;;;;2.08;1.30;;;17.90;99.90;;;;;;5076758;28;20213;-56
2022/11/09 10:30:46;;;;;;;4.03;1.40;;;17.70;99.90;;;;;;5076430;28;20255;-56
2022/11/09 10:33:19;;;;;;;1.10;1.00;;;17.60;99.90;;;;;;5075829;28;20235;-57
2022/11/09 10:35:50;;;;;;;3.38;1.10;;;17.40;99.90;;;;;;5075989;28;20256;-55
2022/11/09 10:38:25;;;;;;;1.73;1.08;;;17.40;99.90;;;;;;5075057;28;20205;-57
2022/11/09 10:40:55;;;;;;;1.75;1.13;;;17.50;99.90;;;;;;5076299;28;20740;-55
2022/11/09 10:43:24;;;;;;;0.90;0.70;;;17.30;99.90;;;;;;5076627;28;20214;-55
2022/11/09 10:46:03;;;;;;;2.38;0.75;;;17.40;99.90;;;;;;5075975;28;20230;-56
2022/11/09 10:48:33;;;;;;;1.73;1.17;;;17.50;99.90;;;;;;5075594;28;20668;-55
2022/11/09 10:51:01;;;;;;;1.20;1.10;;;17.60;99.90;;;;;;5076726;28;20227;-55
2022/11/09 10:53:28;;;;;;;26.90;24.08;;;17.60;99.90;;;;;;5075473;28;20205;-56
2022/11/09 10:55:56;;;;;;;4.60;4.18;;;17.80;99.90;;;;;;5075375;28;20232;-58
2022/11/09 10:58:28;;;;;;;2.00;1.40;;;18.00;99.90;;;;;;5075988;28;20205;-57
2022/11/09 11:01:00;;;;;;;1.30;0.82;;;18.30;99.90;;;;;;5075471;28;20236;-57
2022/11/09 11:03:28;;;;;;;4.50;3.40;;;18.40;99.90;;;;;;5075840;28;20213;-60
2022/11/09 11:05:59;;;;;;;105.07;63.53;;;18.50;99.90;;;;;;5076346;28;20228;-60
2022/11/09 11:08:29;;;;;;;6.43;4.40;;;18.60;99.90;;;;;;5075619;28;20304;-59
2022/11/09 11:11:25;;;;;;;1.63;1.10;;;18.70;99.90;;;;;;5075703;28;20244;-59
2022/11/09 11:14:12;;;;;;;2.85;1.05;;;18.90;99.90;;;;;;5074362;28;20205;-62
2022/11/09 11:16:43;;;;;;;2.08;1.30;;;18.90;99.90;;;;;;5074903;28;20236;-60
2022/11/09 11:19:25;;;;;;;3.30;1.02;;;19.10;99.90;;;;;;5075059;28;20696;-61
2022/11/09 11:22:22;;;;;;;2.10;1.02;;;19.20;99.90;;;;;;5074601;28;20220;-61
2022/11/09 11:24:54;;;;;;;2.65;1.35;;;19.20;99.90;;;;;;5074017;28;20208;-60
2022/11/09 11:27:27;;;;;;;3.72;1.00;;;19.30;99.90;;;;;;5074929;28;20220;-60
2022/11/09 11:29:59;;;;;;;2.45;1.80;;;19.30;99.90;;;;;;5074304;28;20205;-60
2022/11/09 11:32:27;;;;;;;2.13;1.00;;;19.40;99.90;;;;;;5073993;28;20212;-60
2022/11/09 11:34:54;;;;;;;2.83;0.90;;;19.60;99.90;;;;;;5073125;28;20212;-60
2022/11/09 11:37:39;;;;;;;2.22;1.90;;;19.70;99.90;;;;;;5073679;28;20673;-59
2022/11/09 11:40:14;;;;;;;2.08;1.02;;;19.80;99.90;;;;;;5073931;28;20221;-60
2022/11/09 11:43:06;;;;;;;2.05;1.00;;;19.70;99.90;;;;;;5073433;28;20204;-60
2022/11/09 11:45:38;;;;;;;1.35;1.10;;;19.70;99.90;;;;;;5073638;28;20322;-60
2022/11/09 11:48:24;;;;;;;2.65;1.33;;;19.70;99.90;;;;;;5073145;28;20286;-60
2022/11/09 11:50:58;;;;;;;1.35;1.13;;;19.70;99.90;;;;;;5073381;28;20575;-60
2022/11/09 11:53:39;;;;;;;3.90;1.25;;;19.60;99.90;;;;;;5072891;28;20216;-60
2022/11/09 11:56:19;;;;;;;1.80;1.23;;;19.60;99.90;;;;;;5072963;28;20311;-60
2022/11/09 11:58:58;;;;;;;2.50;2.25;;;19.70;99.90;;;;;;5073388;28;20254;-60
2022/11/09 12:01:44;;;;;;;1.50;1.20;;;19.60;99.90;;;;;;5072999;28;20246;-60
2022/11/09 12:04:36;;;;;;;2.45;1.20;;;19.50;99.90;;;;;;5072600;28;20619;-60
2022/11/09 12:07:14;;;;;;;2.15;1.50;;;19.40;99.90;;;;;;5072964;28;20296;-60
2022/11/09 12:10:08;;;;;;;3.47;1.20;;;19.30;99.90;;;;;;5073156;28;20205;-60
2022/11/09 12:12:44;;;;;;;2.33;1.30;;;19.20;99.90;;;;;;5066382;28;20201;-60
2022/11/09 12:15:25;;;;;;;4.30;1.42;;;19.20;99.90;;;;;;5072339;28;20256;-60
2022/11/09 12:18:02;;;;;;;1.85;1.45;;;19.20;99.90;;;;;;5073167;28;20208;-61
2022/11/09 12:20:36;;;;;;;5.30;1.70;;;19.20;99.90;;;;;;5072605;28;20256;-60
2022/11/09 12:23:34;;;;;;;1.95;1.38;;;19.20;99.90;;;;;;5072658;28;20219;-60
2022/11/09 12:26:09;;;;;;;4.70;1.30;;;19.30;99.90;;;;;;5072684;28;20232;-61
2022/11/09 12:29:00;;;;;;;2.15;1.60;;;19.20;99.90;;;;;;5072632;28;20627;-61
2022/11/09 12:31:38;;;;;;;4.80;1.52;;;19.20;99.90;;;;;;5072676;28;20254;-61
2022/11/09 12:34:14;;;;;;;4.10;1.92;;;19.20;99.90;;;;;;5052932;28;20439;-63
2022/11/09 12:36:47;;;;;;;3.33;2.03;;;19.20;99.90;;;;;;5052906;28;20243;-63
2022/11/09 12:39:22;;;;;;;3.40;2.20;;;19.30;99.90;;;;;;5072634;28;20231;-64
2022/11/09 12:41:50;;;;;;;4.88;3.47;;;19.40;99.90;;;;;;5072472;28;20204;-63
2022/11/09 12:44:23;;;;;;;1.75;1.40;;;19.40;99.90;;;;;;5073531;28;20208;-63
2022/11/09 12:46:56;;;;;;;2.00;1.50;;;19.40;99.90;;;;;;5071915;28;20234;-63
2022/11/09 12:49:32;;;;;;;3.35;1.60;;;19.40;99.90;;;;;;5071985;28;20642;-62
2022/11/09 12:52:01;;;;;;;1.75;1.40;;;19.40;99.90;;;;;;5074086;28;20231;-64
2022/11/09 12:54:28;;;;;;;3.35;1.42;;;19.50;99.90;;;;;;5072716;28;20209;-60
2022/11/09 12:56:58;;;;;;;2.25;1.48;;;19.50;99.90;;;;;;5072427;28;20750;-59
2022/11/09 12:59:36;;;;;;;3.28;1.65;;;19.60;99.90;;;;;;5072301;28;20708;-59
2022/11/09 13:02:04;;;;;;;37.22;33.20;;;19.60;99.90;;;;;;5072304;28;20592;-59